KBOIKMYL

Guest
Details From KBOI - Boise Air Terminal (Gowen Field)
To KMYL - Mc Call Muni
Flight Number -
Tags generated
Created
Modified
Stats Distance 81 nm / 151 km
Max Altitude 1,800 ft / 549 m
Waypoints 3
Social Downloads 1
Likes 0
Share VATSIM

Download

Looking for another format? Having issues loading an existing format? Contact us
Advertisement - Login to hide

Notes

Basic altitude profile: - Ascent Rate: 2500ft/min - Ascent Speed: 250kts - Cruise Altitude: 35000ft - Cruise Speed: 420kts - Descent Rate: 1500ft/min - Descent Speed: 250kts Options: - Use NATs: yes - Use PACOTS: yes - Use low airways: no - Use high airways: yes

Route

KBOI DNJ KMYL

ID Type Via Altitude Latitude Longitude Leg Dist Tot Dist Heading (true) Name
O KBOI APT - 0 ft / 0 m 43.55624˚ -116.21495˚ - 0 nm - Boise Air Terminal (Gowen Field)
DNJ VOR - 1,800 ft / 549 m 44.76711˚ -116.20628˚ 72 nm 72 nm 0° / 0° DONNELLY VOR-DME
O KMYL APT - 0 ft / 0 m 44.88874˚ -116.10175˚ 8 nm 81 nm 31° / 31° Mc Call Muni

Altitude Profile

Advertisement - Login to hide

KBOI

Details ICAO KBOI (BOI)
Name Boise Air Terminal (Gowen Field)
Region United States
Timezone America/Boise (UTC-7.0)
Stats Elevation 2,871 ft / 875 m (AMSL)
Location 43.556241° -116.214953°
Runways 3
Magnetic Variation 13.355° E

METAR

KBOI 150953Z 18008KT 6SM BR OVC005 M03/M04 A3043 RMK AO2 SNE0855 SLP333 P0000 T10331044

Decode

TAF

KBOI 150534Z 1506/1606 VRB05KT 4SM BR OVC005 FM151900 13007KT P6SM SCT005 BKN050 OVC120 FM160400 30010KT 1 1/2SM -SN BR OVC010

Decode

Departure Runways

ID Width Length Bearing (true) Bearing (mag) Surface Threshold Offset Overrun Length
09 75 ft / 23 m 4,989 ft / 1,521 m 105.05° 91.70° Asphalt 0 ft / 0 m 200 ft / 61 m
10L 150 ft / 46 m 9,981 ft / 3,042 m 115.21° 101.86° Asphalt 0 ft / 0 m 0 ft / 0 m
10R 150 ft / 46 m 9,745 ft / 2,970 m 115.20° 101.85° Asphalt 0 ft / 0 m 200 ft / 61 m
27 75 ft / 23 m 4,989 ft / 1,521 m 285.06° 271.71° Asphalt 0 ft / 0 m 0 ft / 0 m
28L 150 ft / 46 m 9,745 ft / 2,970 m 295.23° 281.88° Asphalt 0 ft / 0 m 200 ft / 61 m
28R 150 ft / 46 m 9,981 ft / 3,042 m 295.23° 281.88° Asphalt 0 ft / 0 m 200 ft / 61 m

KMYL

Details ICAO KMYL (MYL)
Name Mc Call Muni
Region United States
Timezone America/Boise (UTC-7.0)
Stats Elevation 5,020 ft / 1,530 m (AMSL)
Location 44.888738° -116.101747°
Runways 1
Magnetic Variation 13.584° E

METAR

KMYL 151003Z AUTO 00000KT 3/4SM BR OVC001 M12/M13 A3027

Decode

TAF

KMYL 150534Z 1506/1606 VRB03KT 1/2SM FZFG OVC001 FM151700 20007KT 5SM BR SCT001 OVC150 FM160200 24008KT 1/2SM -SN FZFG OVC003

Decode

Destination Runways

ID Width Length Bearing (true) Bearing (mag) Surface Threshold Offset Overrun Length
16 75 ft / 23 m 6,113 ft / 1,863 m 178.61° 165.03° Asphalt 0 ft / 0 m 56 ft / 17 m
34 75 ft / 23 m 6,113 ft / 1,863 m 358.61° 345.03° Asphalt 0 ft / 0 m 0 ft / 0 m

Popular Alternatives